createdAt,value
2023-01-28T00:02:00.103Z,0.80
2023-01-28T00:04:28.965Z,0.80
2023-01-28T00:06:58.921Z,0.90
2023-01-28T00:09:27.757Z,0.90
2023-01-28T00:11:56.886Z,0.90
2023-01-28T00:14:26.497Z,0.90
2023-01-28T00:16:55.353Z,0.90
2023-01-28T00:19:26.445Z,0.90
2023-01-28T00:21:55.938Z,0.90
2023-01-28T00:24:26.214Z,1.00
2023-01-28T00:26:55.215Z,0.90
2023-01-28T00:29:24.320Z,0.90
2023-01-28T00:31:53.071Z,0.90
2023-01-28T00:34:21.752Z,0.90
2023-01-28T00:36:58.365Z,1.00
2023-01-28T00:39:29.083Z,0.90
2023-01-28T00:42:00.859Z,0.90
2023-01-28T00:44:29.550Z,0.80
2023-01-28T00:46:58.854Z,0.90
2023-01-28T00:49:30.770Z,0.90
2023-01-28T00:51:59.665Z,0.90
2023-01-28T00:54:30.230Z,0.90
2023-01-28T00:56:59.214Z,1.00
2023-01-28T00:59:28.181Z,1.00
2023-01-28T01:02:12.717Z,1.00
2023-01-28T01:04:55.102Z,1.10
2023-01-28T01:07:35.162Z,1.10
2023-01-28T01:10:05.933Z,1.10
2023-01-28T01:12:34.729Z,1.10
2023-01-28T01:15:04.146Z,1.10
2023-01-28T01:17:33.466Z,1.10
2023-01-28T01:20:05.551Z,1.10
2023-01-28T01:22:35.977Z,1.10
2023-01-28T01:25:07.226Z,1.10
2023-01-28T01:27:35.811Z,1.20
2023-01-28T01:30:04.773Z,1.20
2023-01-28T01:32:36.499Z,1.20
2023-01-28T01:35:09.103Z,1.20
2023-01-28T01:37:38.264Z,1.20
2023-01-28T01:40:12.584Z,1.10
2023-01-28T01:42:42.224Z,1.20
2023-01-28T01:45:16.181Z,1.20
2023-01-28T01:47:49.964Z,1.20
2023-01-28T01:50:25.755Z,1.20
2023-01-28T01:53:00.640Z,1.30
2023-01-28T01:55:37.803Z,1.30
2023-01-28T01:58:12.038Z,1.30
2023-01-28T02:00:42.031Z,1.30
2023-01-28T02:03:12.703Z,1.30
2023-01-28T02:05:42.025Z,1.30
2023-01-28T02:08:23.111Z,1.30
2023-01-28T02:10:56.798Z,1.30
2023-01-28T02:13:30.038Z,1.30
2023-01-28T02:16:00.767Z,1.40
2023-01-28T02:18:29.592Z,1.40
2023-01-28T02:21:24.583Z,1.30
2023-01-28T02:24:12.555Z,1.30
2023-01-28T02:27:06.825Z,1.40
2023-01-28T02:29:42.854Z,1.40
2023-01-28T02:32:16.947Z,1.40
2023-01-28T02:34:51.809Z,1.30
2023-01-28T02:37:24.237Z,1.30
2023-01-28T02:39:58.035Z,1.40
2023-01-28T02:42:30.320Z,1.30
2023-01-28T02:45:00.356Z,1.30
2023-01-28T02:47:46.687Z,1.30
2023-01-28T02:50:19.726Z,1.30
2023-01-28T02:53:18.657Z,1.30
2023-01-28T02:55:53.376Z,1.30
2023-01-28T02:58:30.462Z,1.30
2023-01-28T03:01:11.244Z,1.30
2023-01-28T03:03:47.462Z,1.30
2023-01-28T03:06:23.414Z,1.30
2023-01-28T03:09:13.440Z,1.20
2023-01-28T03:12:02.446Z,1.10
2023-01-28T03:14:51.823Z,1.20
2023-01-28T03:17:44.255Z,1.10
2023-01-28T03:20:31.267Z,1.20
2023-01-28T03:23:24.842Z,1.10
2023-01-28T03:26:17.327Z,1.20
2023-01-28T03:29:07.535Z,1.20
2023-01-28T03:31:55.910Z,1.20
2023-01-28T03:34:44.023Z,1.10
2023-01-28T03:37:14.948Z,1.20
2023-01-28T03:39:43.721Z,1.10
2023-01-28T03:42:15.074Z,1.20
2023-01-28T03:44:52.401Z,1.20
2023-01-28T03:47:22.915Z,1.20
2023-01-28T03:49:54.782Z,1.20
2023-01-28T03:52:25.551Z,1.10
2023-01-28T03:54:54.204Z,1.10
2023-01-28T03:57:24.475Z,1.20
2023-01-28T03:59:53.314Z,1.20
2023-01-28T04:02:23.276Z,1.20
2023-01-28T04:04:53.556Z,1.20
2023-01-28T04:07:22.346Z,1.20
2023-01-28T04:09:50.941Z,1.20
2023-01-28T04:12:20.088Z,1.30
2023-01-28T04:14:48.795Z,1.30
2023-01-28T04:17:17.491Z,1.20
2023-01-28T04:19:45.957Z,1.20
2023-01-28T04:22:16.128Z,1.20
2023-01-28T04:24:44.889Z,1.20
2023-01-28T04:27:13.510Z,1.20
2023-01-28T04:29:42.172Z,1.20
2023-01-28T04:32:11.776Z,1.20
2023-01-28T04:34:40.486Z,1.20
2023-01-28T04:37:09.056Z,1.20
2023-01-28T04:39:39.431Z,1.20
2023-01-28T04:42:08.306Z,1.20
2023-01-28T04:44:36.883Z,1.20
2023-01-28T04:47:05.595Z,1.20
2023-01-28T04:49:34.635Z,1.20
2023-01-28T04:52:03.194Z,1.20
2023-01-28T04:54:32.403Z,1.10
2023-01-28T04:57:03.095Z,1.10
2023-01-28T04:59:32.620Z,1.20
2023-01-28T05:02:03.445Z,1.20
2023-01-28T05:04:33.354Z,1.20
2023-01-28T05:07:02.620Z,1.20
2023-01-28T05:09:31.192Z,1.20
2023-01-28T05:12:02.147Z,1.30
2023-01-28T05:14:31.118Z,1.30
2023-01-28T05:17:00.373Z,1.30
2023-01-28T05:19:29.477Z,1.30
2023-01-28T05:21:58.905Z,1.30
2023-01-28T05:24:28.872Z,1.30
2023-01-28T05:26:57.641Z,1.30
2023-01-28T05:29:27.711Z,1.30
2023-01-28T05:31:56.332Z,1.20
2023-01-28T05:34:24.963Z,1.30
2023-01-28T05:36:53.773Z,1.30
2023-01-28T05:39:22.569Z,1.30
2023-01-28T05:41:51.089Z,1.30
2023-01-28T05:44:19.825Z,1.30
2023-01-28T05:46:50.392Z,1.30
2023-01-28T05:49:18.959Z,1.30
2023-01-28T05:51:48.627Z,1.20
2023-01-28T05:54:17.173Z,1.30
2023-01-28T05:56:47.650Z,1.30
2023-01-28T05:59:16.867Z,1.30
2023-01-28T06:01:45.384Z,1.30
2023-01-28T06:04:15.450Z,1.30
2023-01-28T06:06:44.004Z,1.20
2023-01-28T06:09:12.624Z,1.30
2023-01-28T06:11:41.191Z,1.30
2023-01-28T06:14:09.755Z,1.30
2023-01-28T06:16:38.321Z,1.30
2023-01-28T06:19:07.408Z,1.30
2023-01-28T06:21:37.802Z,1.30
2023-01-28T06:24:06.569Z,1.30
2023-01-28T06:26:35.186Z,1.30
2023-01-28T06:29:03.985Z,1.20
2023-01-28T06:31:32.659Z,1.30
2023-01-28T06:34:01.481Z,1.30
2023-01-28T06:36:30.511Z,1.30
2023-01-28T06:39:00.678Z,1.30
2023-01-28T06:41:29.235Z,1.30
2023-01-28T06:43:57.838Z,1.40
2023-01-28T06:46:26.772Z,1.50
2023-01-28T06:48:55.402Z,1.40
2023-01-28T06:51:24.168Z,1.40
2023-01-28T06:53:52.776Z,1.40
2023-01-28T06:56:23.059Z,1.50
2023-01-28T06:58:51.750Z,1.50
2023-01-28T07:01:20.378Z,1.40
2023-01-28T07:03:48.892Z,1.50
2023-01-28T07:06:17.566Z,1.40
2023-01-28T07:08:46.121Z,1.50
2023-01-28T07:11:14.637Z,1.50
2023-01-28T07:13:45.288Z,1.50
2023-01-28T07:16:14.034Z,1.50
2023-01-28T07:18:43.108Z,1.50
2023-01-28T07:21:11.699Z,1.50
2023-01-28T07:23:41.298Z,1.50
2023-01-28T07:26:10.493Z,1.50
2023-01-28T07:28:39.384Z,1.50
2023-01-28T07:31:09.471Z,1.60
2023-01-28T07:33:40.153Z,1.60
2023-01-28T07:36:11.660Z,1.50
2023-01-28T07:38:40.269Z,1.50
2023-01-28T07:41:08.817Z,1.50
2023-01-28T07:43:37.515Z,1.50
2023-01-28T07:46:06.393Z,1.50
2023-01-28T07:48:37.082Z,1.50
2023-01-28T07:51:05.861Z,1.50
2023-01-28T07:53:34.570Z,1.60
2023-01-28T07:56:04.973Z,1.50
2023-01-28T07:58:34.842Z,1.50
2023-01-28T08:01:03.786Z,1.60
2023-01-28T08:03:33.009Z,1.60
2023-01-28T08:06:03.125Z,1.50
2023-01-28T08:08:31.699Z,1.50
2023-01-28T08:11:00.963Z,1.50
2023-01-28T08:13:29.530Z,1.50
2023-01-28T08:15:58.514Z,1.50
2023-01-28T08:18:27.101Z,1.50
2023-01-28T08:20:57.510Z,1.60
2023-01-28T08:23:29.429Z,1.60
2023-01-28T08:26:00.726Z,1.50
2023-01-28T08:28:29.491Z,1.50
2023-01-28T08:31:00.881Z,1.50
2023-01-28T08:33:29.718Z,1.60
2023-01-28T08:35:58.381Z,1.60
2023-01-28T08:38:28.469Z,1.60
2023-01-28T08:40:59.212Z,1.50
2023-01-28T08:43:28.053Z,1.50
2023-01-28T08:45:56.631Z,1.50
2023-01-28T08:48:25.359Z,1.50
2023-01-28T08:50:54.108Z,1.50
2023-01-28T08:53:25.466Z,1.60
2023-01-28T08:55:55.814Z,1.50
2023-01-28T08:58:24.572Z,1.60
2023-01-28T09:00:53.798Z,1.60
2023-01-28T09:03:22.435Z,1.50
2023-01-28T09:05:51.281Z,1.50
2023-01-28T09:08:19.895Z,1.60
2023-01-28T09:10:48.527Z,1.60
2023-01-28T09:13:18.763Z,1.50
2023-01-28T09:15:47.391Z,1.60
2023-01-28T09:18:16.351Z,1.50
2023-01-28T09:20:45.201Z,1.60
2023-01-28T09:23:14.082Z,1.60
2023-01-28T09:25:42.793Z,1.60
2023-01-28T09:28:11.465Z,1.60
2023-01-28T09:30:41.615Z,1.60
2023-01-28T09:33:10.503Z,1.50
2023-01-28T09:35:39.315Z,1.60
2023-01-28T09:38:08.000Z,1.60
2023-01-28T09:40:39.812Z,1.60
2023-01-28T09:43:33.646Z,1.60
2023-01-28T09:46:06.109Z,1.60
2023-01-28T09:48:38.464Z,1.60
2023-01-28T09:51:12.102Z,1.60
2023-01-28T09:53:49.650Z,1.60
2023-01-28T09:56:27.188Z,1.60
2023-01-28T09:58:55.890Z,1.60
2023-01-28T10:01:40.348Z,1.60
2023-01-28T10:04:24.240Z,1.70
2023-01-28T10:07:03.198Z,1.70
2023-01-28T10:09:41.570Z,1.70
2023-01-28T10:12:40.755Z,1.70
2023-01-28T10:15:31.352Z,1.70
2023-01-28T10:18:31.663Z,1.70
2023-01-28T10:21:07.384Z,1.80
2023-01-28T10:23:45.649Z,1.80
2023-01-28T10:26:23.197Z,1.90
2023-01-28T10:28:57.317Z,1.90
2023-01-28T10:31:34.124Z,1.80
2023-01-28T10:34:04.773Z,1.80
2023-01-28T10:36:33.532Z,1.80
2023-01-28T10:39:02.209Z,1.70
2023-01-28T10:41:30.873Z,1.80
2023-01-28T10:43:59.804Z,1.80
2023-01-28T10:46:31.480Z,1.70
2023-01-28T10:49:08.806Z,1.80
2023-01-28T10:51:38.750Z,1.80
2023-01-28T10:54:22.117Z,1.90
2023-01-28T10:56:53.612Z,1.90
2023-01-28T10:59:27.302Z,2.00
2023-01-28T11:01:58.183Z,2.00
2023-01-28T11:04:30.515Z,2.00
2023-01-28T11:07:03.815Z,2.00
2023-01-28T11:09:34.406Z,2.00
2023-01-28T11:12:15.948Z,2.00
2023-01-28T11:14:52.696Z,2.00
2023-01-28T11:17:24.893Z,1.90
2023-01-28T11:19:56.481Z,1.90
2023-01-28T11:22:30.516Z,2.00
2023-01-28T11:24:59.318Z,2.00
2023-01-28T11:27:32.211Z,1.90
2023-01-28T11:30:04.906Z,2.00
2023-01-28T11:32:34.902Z,2.00
2023-01-28T11:35:09.791Z,2.00
2023-01-28T11:37:39.362Z,2.00
2023-01-28T11:40:21.862Z,2.10
2023-01-28T11:42:54.583Z,2.00
2023-01-28T11:45:37.982Z,2.00
2023-01-28T11:48:41.844Z,2.00
2023-01-28T11:51:35.299Z,2.00
2023-01-28T11:54:23.179Z,2.00
2023-01-28T11:57:07.763Z,2.00
2023-01-28T11:59:57.658Z,2.00
2023-01-28T12:02:53.798Z,1.90
2023-01-28T12:05:40.139Z,1.90
2023-01-28T12:08:19.764Z,1.90
2023-01-28T12:11:08.014Z,1.90
2023-01-28T12:13:54.121Z,1.80
2023-01-28T12:16:55.988Z,1.80
2023-01-28T12:19:50.819Z,1.90
2023-01-28T12:22:44.350Z,2.00
2023-01-28T12:25:28.362Z,1.90
2023-01-28T12:28:04.902Z,1.90
2023-01-28T12:30:51.041Z,1.90
2023-01-28T12:33:40.977Z,1.90
2023-01-28T12:36:23.682Z,1.80
2023-01-28T12:39:04.680Z,1.70
2023-01-28T12:41:41.895Z,1.80
2023-01-28T12:44:15.693Z,1.70
2023-01-28T12:46:48.073Z,1.80
2023-01-28T12:49:22.707Z,1.80
2023-01-28T12:52:03.264Z,1.80
2023-01-28T12:54:37.392Z,1.90
2023-01-28T12:57:11.746Z,1.80
2023-01-28T12:59:45.616Z,1.80
2023-01-28T13:02:25.569Z,1.80
2023-01-28T13:05:02.567Z,1.80
2023-01-28T13:07:36.931Z,1.80
2023-01-28T13:10:11.836Z,1.90
2023-01-28T13:12:43.295Z,1.80
2023-01-28T13:15:15.369Z,1.80
2023-01-28T13:17:56.494Z,1.90
2023-01-28T13:20:38.383Z,1.80
2023-01-28T13:23:23.105Z,1.90
2023-01-28T13:25:53.936Z,1.80
2023-01-28T13:28:33.047Z,1.80
2023-01-28T13:31:14.482Z,1.80
2023-01-28T13:33:44.563Z,1.80
2023-01-28T13:36:27.322Z,1.80
2023-01-28T13:39:05.527Z,1.80
2023-01-28T13:41:41.900Z,1.80
2023-01-28T13:44:22.977Z,1.80
2023-01-28T13:46:51.651Z,1.80
2023-01-28T13:49:27.547Z,1.70
2023-01-28T13:52:03.024Z,1.70
2023-01-28T13:54:33.601Z,1.70
2023-01-28T13:57:26.435Z,1.60
2023-01-28T14:00:06.631Z,1.60
2023-01-28T14:03:01.292Z,1.60
2023-01-28T14:06:07.468Z,1.60
2023-01-28T14:09:00.583Z,1.60
2023-01-28T14:12:07.454Z,1.60
2023-01-28T14:14:53.570Z,1.60
2023-01-28T14:17:35.031Z,1.50
2023-01-28T14:20:05.252Z,1.50
2023-01-28T14:22:34.440Z,1.50
2023-01-28T14:25:03.824Z,1.50
2023-01-28T14:27:39.275Z,1.50
2023-01-28T14:30:16.266Z,1.50
2023-01-28T14:32:51.020Z,1.50
2023-01-28T14:35:23.751Z,1.50
2023-01-28T14:37:53.787Z,1.40
2023-01-28T14:40:23.701Z,1.40
2023-01-28T14:42:56.092Z,1.40
2023-01-28T14:45:46.591Z,1.40
2023-01-28T14:49:04.829Z,1.40
2023-01-28T14:52:07.317Z,1.30
2023-01-28T14:54:46.046Z,1.50
2023-01-28T14:57:41.751Z,1.30
2023-01-28T15:00:21.245Z,1.40
2023-01-28T15:02:57.312Z,1.30
2023-01-28T15:05:29.771Z,1.20
2023-01-28T15:07:58.687Z,1.30
2023-01-28T15:10:33.053Z,1.30
2023-01-28T15:13:06.336Z,1.30
2023-01-28T15:15:37.381Z,1.30
2023-01-28T15:18:21.421Z,1.30
2023-01-28T15:20:53.994Z,1.20
2023-01-28T15:23:28.940Z,1.10
2023-01-28T15:25:58.437Z,1.10
2023-01-28T15:28:31.943Z,1.10
2023-01-28T15:31:01.132Z,1.10
2023-01-28T15:33:29.844Z,1.10
2023-01-28T15:36:00.839Z,1.10
2023-01-28T15:38:30.869Z,1.10
2023-01-28T15:41:03.100Z,1.20
2023-01-28T15:43:33.448Z,1.20
2023-01-28T15:46:02.655Z,1.10
2023-01-28T15:48:33.926Z,1.10
2023-01-28T15:51:06.322Z,1.10
2023-01-28T15:53:38.058Z,1.10
2023-01-28T15:56:10.004Z,1.00
2023-01-28T15:58:41.896Z,1.00
2023-01-28T16:01:19.970Z,1.10
2023-01-28T16:04:02.096Z,1.10
2023-01-28T16:06:36.207Z,1.10
2023-01-28T16:09:07.784Z,1.10
2023-01-28T16:11:45.107Z,1.00
2023-01-28T16:14:24.085Z,1.00
2023-01-28T16:16:53.457Z,0.90
2023-01-28T16:19:38.703Z,1.00
2023-01-28T16:22:09.978Z,0.90
2023-01-28T16:24:38.666Z,0.90
2023-01-28T16:27:20.336Z,1.00
2023-01-28T16:29:49.263Z,1.00
2023-01-28T16:32:32.740Z,1.00
2023-01-28T16:35:01.534Z,1.00
2023-01-28T16:37:31.513Z,0.90
2023-01-28T16:40:01.884Z,0.90
2023-01-28T16:42:32.814Z,0.90
2023-01-28T16:45:01.602Z,0.90
2023-01-28T16:47:30.486Z,1.00
2023-01-28T16:49:59.084Z,0.90
2023-01-28T16:52:27.753Z,0.90
2023-01-28T16:54:58.011Z,0.80
2023-01-28T16:57:26.630Z,1.10
2023-01-28T16:59:55.319Z,1.00
2023-01-28T17:02:23.940Z,1.00
2023-01-28T17:04:52.617Z,0.90
2023-01-28T17:07:21.604Z,0.90
2023-01-28T17:09:50.223Z,0.90
2023-01-28T17:12:20.870Z,0.80
2023-01-28T17:14:49.659Z,0.90
2023-01-28T17:17:18.507Z,0.90
2023-01-28T17:19:47.267Z,0.80
2023-01-28T17:22:15.896Z,0.80
2023-01-28T17:24:44.750Z,0.90
2023-01-28T17:27:13.472Z,0.90
2023-01-28T17:29:43.758Z,0.90
2023-01-28T17:32:12.489Z,0.90
2023-01-28T17:34:41.121Z,0.80
2023-01-28T17:37:09.663Z,0.80
2023-01-28T17:39:38.312Z,0.80
2023-01-28T17:42:06.997Z,0.80
2023-01-28T17:44:35.894Z,0.70
2023-01-28T17:47:06.204Z,0.70
2023-01-28T17:49:34.879Z,0.70
2023-01-28T17:52:03.677Z,0.80
2023-01-28T17:54:32.328Z,0.80
2023-01-28T17:57:01.903Z,0.80
2023-01-28T17:59:30.675Z,0.80
2023-01-28T18:01:59.351Z,0.80
2023-01-28T18:04:29.652Z,0.80
2023-01-28T18:06:58.343Z,0.90
2023-01-28T18:09:26.947Z,0.90
2023-01-28T18:11:55.686Z,0.90
2023-01-28T18:14:24.235Z,0.80
2023-01-28T18:16:52.810Z,0.80
2023-01-28T18:19:21.460Z,0.80
2023-01-28T18:21:53.331Z,0.80
2023-01-28T18:24:23.959Z,0.70
2023-01-28T18:26:55.555Z,0.70
2023-01-28T18:29:24.409Z,0.80
2023-01-28T18:31:55.434Z,0.80
2023-01-28T18:34:25.163Z,0.80
2023-01-28T18:36:57.676Z,0.90
2023-01-28T18:39:30.366Z,0.90
2023-01-28T18:41:59.532Z,0.80
2023-01-28T18:44:31.227Z,0.80
2023-01-28T18:46:59.980Z,0.70
2023-01-28T18:49:28.719Z,0.80
2023-01-28T18:51:59.632Z,0.90
2023-01-28T18:54:28.395Z,0.80
2023-01-28T18:56:57.104Z,0.80
2023-01-28T18:59:25.889Z,0.80
2023-01-28T19:01:54.703Z,0.70
2023-01-28T19:04:23.290Z,0.80
2023-01-28T19:06:51.854Z,0.80
2023-01-28T19:09:21.877Z,0.80
2023-01-28T19:11:51.166Z,0.80
2023-01-28T19:14:19.756Z,0.70
2023-01-28T19:16:48.394Z,0.70
2023-01-28T19:19:17.651Z,0.70
2023-01-28T19:21:46.264Z,0.80
2023-01-28T19:24:15.261Z,0.80
2023-01-28T19:26:46.100Z,0.80
2023-01-28T19:29:16.341Z,0.80
2023-01-28T19:31:49.108Z,0.80
2023-01-28T19:34:18.110Z,0.80
2023-01-28T19:36:47.172Z,0.80
2023-01-28T19:39:15.949Z,0.80
2023-01-28T19:41:48.710Z,0.80
2023-01-28T19:44:17.659Z,0.80
2023-01-28T19:46:48.517Z,0.80
2023-01-28T19:49:18.266Z,0.80
2023-01-28T19:51:50.555Z,0.80
2023-01-28T19:54:19.654Z,0.70
2023-01-28T19:56:50.195Z,0.60
2023-01-28T19:59:20.399Z,0.70
2023-01-28T20:01:51.063Z,0.70
2023-01-28T20:04:22.352Z,0.60
2023-01-28T20:06:54.039Z,0.70
2023-01-28T20:09:27.446Z,0.60
2023-01-28T20:11:57.949Z,0.70
2023-01-28T20:14:29.239Z,0.70
2023-01-28T20:16:58.055Z,0.70
2023-01-28T20:19:26.660Z,0.70
2023-01-28T20:21:55.434Z,0.70
2023-01-28T20:24:24.292Z,0.60
2023-01-28T20:26:53.029Z,0.60
2023-01-28T20:29:23.098Z,0.50
2023-01-28T20:32:09.596Z,0.50
2023-01-28T20:34:40.526Z,0.50
2023-01-28T20:37:10.379Z,0.50
2023-01-28T20:39:39.197Z,0.50
2023-01-28T20:42:09.585Z,0.60
2023-01-28T20:44:39.739Z,0.60
2023-01-28T20:47:08.691Z,0.60
2023-01-28T20:49:40.180Z,0.70
2023-01-28T20:52:08.824Z,0.60
2023-01-28T20:54:38.128Z,0.60
2023-01-28T20:57:07.008Z,0.60
2023-01-28T20:59:35.749Z,0.50
2023-01-28T21:02:06.020Z,0.50
2023-01-28T21:04:36.242Z,0.50
2023-01-28T21:07:04.787Z,0.50
2023-01-28T21:09:33.391Z,0.50
2023-01-28T21:12:02.059Z,0.50
2023-01-28T21:14:30.680Z,0.50
2023-01-28T21:16:59.342Z,0.40
2023-01-28T21:19:29.351Z,0.40
2023-01-28T21:21:57.935Z,0.40
2023-01-28T21:24:26.575Z,0.30
2023-01-28T21:26:55.196Z,0.40
2023-01-28T21:29:24.372Z,0.40
2023-01-28T21:31:53.108Z,0.30
2023-01-28T21:34:21.826Z,0.20
2023-01-28T21:36:51.885Z,0.20
2023-01-28T21:39:20.556Z,0.30
2023-01-28T21:41:49.438Z,0.30
2023-01-28T21:44:18.687Z,0.30
2023-01-28T21:46:48.007Z,0.30
2023-01-28T21:49:16.657Z,0.40
2023-01-28T21:51:47.381Z,0.40
2023-01-28T21:54:59.732Z,0.30
2023-01-28T21:57:28.681Z,0.20
2023-01-28T21:59:57.810Z,0.20
2023-01-28T22:02:26.609Z,0.20
2023-01-28T22:04:55.647Z,0.20
2023-01-28T22:07:24.249Z,0.30
2023-01-28T22:09:55.368Z,0.30
2023-01-28T22:12:24.105Z,0.30
2023-01-28T22:14:52.771Z,0.20
2023-01-28T22:17:21.594Z,0.20
2023-01-28T22:19:50.335Z,0.20
2023-01-28T22:22:19.533Z,0.30
2023-01-28T22:24:48.163Z,0.20
2023-01-28T22:27:18.376Z,0.30
2023-01-28T22:29:47.053Z,0.20
2023-01-28T22:32:15.777Z,0.30
2023-01-28T22:34:46.835Z,0.30
2023-01-28T22:37:15.750Z,0.30
2023-01-28T22:39:44.363Z,0.40
2023-01-28T22:42:12.915Z,0.30
2023-01-28T22:44:43.271Z,0.30
2023-01-28T22:47:11.959Z,0.30
2023-01-28T22:49:40.494Z,0.20
2023-01-28T22:52:09.175Z,0.30
2023-01-28T22:54:37.765Z,0.20
2023-01-28T22:57:06.390Z,0.20
2023-01-28T22:59:34.988Z,0.20
2023-01-28T23:02:05.195Z,0.20
2023-01-28T23:04:33.997Z,0.20
2023-01-28T23:07:02.665Z,0.10
2023-01-28T23:09:31.430Z,0.00
2023-01-28T23:12:00.126Z,0.10
2023-01-28T23:14:46.284Z,0.10
2023-01-28T23:17:33.911Z,0.10
2023-01-28T23:20:20.149Z,0.00
2023-01-28T23:23:06.492Z,0.00
2023-01-28T23:25:35.667Z,0.00
2023-01-28T23:28:04.282Z,0.00
2023-01-28T23:30:33.164Z,0.00
2023-01-28T23:33:03.233Z,0.00
2023-01-28T23:35:32.902Z,-0.10
2023-01-28T23:38:01.547Z,0.00
2023-01-28T23:40:30.203Z,0.00
2023-01-28T23:42:58.791Z,0.00
2023-01-28T23:45:27.390Z,-0.10
2023-01-28T23:47:55.990Z,0.00
2023-01-28T23:50:25.937Z,0.00
2023-01-28T23:52:54.609Z,0.00
2023-01-28T23:55:23.138Z,0.00
2023-01-28T23:57:51.655Z,0.00
